KOGD/OGD METAR and TAF weather

Enter ICAO airport designator
Station Type Date Time Source
KOGD METAR 2019/06/16 12:53 UTC NOAA

KOGD 161253Z 17007KT 10SM CLR 15/04 A2996 RMK AO2 SLP092 T01500039


Station Type Date Time Source
KOGD Decoded METAR 2019/06/16 12:53 UTC NOAA

OGDEN-HINCKLEY AIRPORT, UT, United States (KOGD) 41-12N 112-01W 1353M
Jun 16, 2019 - 08:53 AM EDT / 2019.06.16 1253 UTC
Wind: from the S (170 degrees) at 8 MPH (7 KT):0
Visibility: 10 mile(s):0
Sky conditions: clear
Temperature: 59.0 F (15.0 C)
Dew Point: 39.0 F (3.9 C)
Relative Humidity: 47%
Pressure (altimeter): 29.96 in. Hg (1014 hPa)
ob: KOGD 161253Z 17007KT 10SM CLR 15/04 A2996 RMK AO2 SLP092 T01500039
cycle: 13

Station Type Date Time Source
KOGD TAF 2019/06/16 12:22 UTC NOAA

TAF KOGD 161120Z 1612/1712 16009KT P6SM SCT120
FM161800 24005KT P6SM SCT120
FM170300 16005KT P6SM SCT100 SCT120

Example: see airport list